• Join FlightAware (Why Join?)
  • Login
  • US Flag 
04:47AM EDT


 

Airport Tracker/Info


-or-


 

Live Flight TrackerFlight Track Log ✈ N960DL ✈ 26-Apr-2013 ✈ MYNN / NAS - KATL

Flight Track Log - Related Links

Times and Time Zones

All times are in EDT time to prevent confusion due to time zone crossing. See the N960DL flight status page for this flight to view local times or setup timezone preferences in your user account.

Time Position Orientation Groundspeed Altitude Reporting Facility
EDT Latitude Longitude Course Direction KTS MPH feet Rate Location/Type
01:05PM 25.0342 -77.4392 307° West 445 512 1,400  Level Miami Center
01:06PM 25.0783 -77.3819 50° Northeast 302 348 4,100 2,820 Climbing Miami Center
01:07PM 25.2334 -77.7367 313° West  Level FlightAware Approximate
01:07PM 25.1369 -77.3431 31° Northeast 239 275 7,100  Level Miami Center
01:08PM 25.3056 -77.8278 299° West  Level FlightAware Approximate
01:08PM 25.1700 -77.4192 296° West 161 185 10,000  Level Miami Center
01:09PM 25.3731 -77.9231 318° Northwest  Level FlightAware Approximate
01:09PM 25.1928 -77.5064 286° West 197 227 11,600  Level Miami Center
01:10PM 25.4446 -78.0147 307° West  Level FlightAware Approximate
01:10PM 25.2172 -77.6192 283° West 319 367 13,700  Level Miami Center
01:11PM 25.2481 -77.7411 286° West 364 419 16,200 2,220 Climbing Miami Center
01:12PM 25.3142 -77.8497 304° West 397 457 18,200 2,160 Climbing Miami Center
01:13PM 25.3908 -77.9492 310° West 416 479 20,600 2,100 Climbing Miami Center
01:14PM 25.4672 -78.0558 308° West 432 497 22,500 2,100 Climbing Miami Center
01:15PM 25.5478 -78.1625 310° West 446 513 24,800 2,340 Climbing Miami Center
01:16PM 25.6222 -78.2669 308° West 446 513 27,200 2,100 Climbing Miami Center
01:17PM 25.6983 -78.3694 310° West 441 507 29,100 1,740 Climbing Miami Center
01:18PM 25.7306 -78.4919 286° West 416 479 30,700 1,500 Climbing Miami Center
01:19PM 25.7375 -78.6214 273° West 416 479 32,100 1,500 Climbing Miami Center
01:20PM 25.7464 -78.7506 274° West 416 479 33,700 900 Climbing Miami Center
01:21PM 25.7550 -78.8708 275° West 411 473 34,000 120 Climbing Miami Center
01:22PM 25.7575 -79.0069 271° West 405 466 34,000  Level Miami Center
01:23PM 25.7617 -79.1314 272° West 405 466 34,000  Level Miami Center
01:24PM 25.7664 -79.2308 273° West 405 466 34,000  Level Miami Center
01:25PM 25.7703 -79.3808 272° West 405 466 34,000  Level Miami Center
01:26PM 25.7914 -79.4875 282° West 405 466 34,000  Level Miami Center
01:27PM 25.8456 -79.6111 296° West 403 464 34,000  Level Miami Center
01:28PM 25.8936 -79.7206 296° West 403 464 34,000  Level Miami Center
01:29PM 25.9394 -79.8325 294° West 398 458 34,000  Level Miami Center
01:30PM 25.9872 -79.9469 295° West 398 458 34,000  Level Miami Center
01:31PM 26.0328 -80.0569 295° West 398 458 34,000  Level Miami Center
01:32PM 26.0847 -80.1625 299° West 398 458 34,000  Level Miami Center
01:33PM 26.1881 -80.2139 336° Northwest 372 428 34,000 300 Level Miami Center
01:34PM 26.2956 -80.2678 336° Northwest 405 466 34,600 480 Climbing Miami Center
01:35PM 26.3864 -80.3100 337° Northwest 405 466 35,000 180 Climbing Miami Center
01:36PM 26.5000 -80.3619 338° Northwest 400 460 35,000  Level Miami Center
01:37PM 26.5931 -80.4042 338° Northwest 400 460 35,000  Level Miami Center
01:38PM 26.7106 -80.4589 337° Northwest 400 460 35,000  Level Miami Center
01:39PM 26.8117 -80.5086 336° Northwest 400 460 35,000  Level Miami Center
01:40PM 26.9128 -80.5583 336° Northwest 400 460 35,000  Level Miami Center
01:41PM 27.0181 -80.6058 338° Northwest 400 460 35,000  Level Miami Center
01:42PM 27.1233 -80.6561 337° Northwest 394 453 35,000  Level Miami Center
01:43PM 27.2264 -80.7036 338° Northwest 394 453 35,000  Level Miami Center
01:44PM 27.3294 -80.7539 337° Northwest 394 453 35,000  Level Miami Center
01:45PM 27.4325 -80.7994 339° North 394 453 35,000  Level Miami Center
01:46PM 27.5356 -80.8500 336° Northwest 394 453 35,000  Level Miami Center
01:47PM 27.6386 -80.9003 337° Northwest 394 453 35,000  Level Miami Center
01:48PM 27.7436 -80.9486 338° Northwest 394 453 35,000  Level Miami Center
01:49PM 27.8528 -80.9994 338° Northwest 394 453 35,000  Level Miami Center
01:50PM 27.9625 -81.0317 345° North 399 459 35,000  Level Miami Center
01:51PM 28.0767 -81.0547 350° North 404 465 35,000  Level Miami Center
01:52PM 28.1886 -81.0753 351° North 409 471 35,000  Level Miami Center
01:53PM 28.2986 -81.0983 350° North 409 471 35,000  Level Miami Center
01:54PM 28.4106 -81.1192 351° North 409 471 35,000  Level Miami Center
01:55PM 28.5325 -81.1464 349° North 411 473 35,000  Level Jacksonville Center
01:56PM 28.6456 -81.1703 349° North 411 473 35,000 480 Level Jacksonville Center
01:57PM 28.7564 -81.1922 350° North 411 473 36,000 780 Climbing Jacksonville Center
01:58PM 28.8653 -81.2142 350° North 405 466 36,600 480 Climbing Jacksonville Center
01:59PM 28.9761 -81.2383 349° North 405 466 37,000 180 Climbing Jacksonville Center
02:00PM 29.0869 -81.2603 350° North 400 460 37,000  Level Jacksonville Center
02:01PM 29.1981 -81.2822 350° North 400 460 37,000  Level Jacksonville Center
02:02PM 29.3089 -81.2994 352° North 400 460 37,000  Level Jacksonville Center
02:03PM 29.4197 -81.3214 350° North 400 460 37,000  Level Jacksonville Center
02:04PM 29.5411 -81.3433 351° North 400 460 37,000  Level Jacksonville Center
02:05PM 29.6497 -81.3656 350° North 400 460 37,000  Level Jacksonville Center
02:06PM 29.7586 -81.3878 350° North 400 460 37,000  Level Jacksonville Center
02:07PM 29.8675 -81.4122 349° North 395 455 37,000  Level Jacksonville Center
02:08PM 29.9658 -81.4325 350° North 395 455 37,000  Level Jacksonville Center
02:09PM 30.0747 -81.4547 350° North 395 455 37,000  Level Jacksonville Center
02:10PM 30.1836 -81.4797 349° North 395 455 37,000  Level Jacksonville Center
02:11PM 30.2922 -81.4997 351° North 395 455 37,000  Level Jacksonville Center
02:12PM 30.3950 -81.5392 342° North 389 448 37,000  Level Jacksonville Center
02:13PM 30.4917 -81.5956 333° Northwest 389 448 37,000  Level Jacksonville Center
02:14PM 30.5861 -81.6522 333° Northwest 384 442 37,000  Level Jacksonville Center
02:15PM 30.6808 -81.7089 333° Northwest 384 442 37,000  Level Jacksonville Center
02:16PM 30.7772 -81.7658 333° Northwest 384 442 37,000  Level Jacksonville Center
02:17PM 30.8697 -81.8228 332° Northwest 378 435 37,000  Level Jacksonville Center
02:18PM 30.9639 -81.8775 334° Northwest 378 435 37,000  Level Jacksonville Center
02:19PM 31.0583 -81.9322 334° Northwest 373 429 37,000  Level Jacksonville Center
02:20PM 31.1506 -81.9869 333° Northwest 373 429 37,000  Level Jacksonville Center
02:21PM 31.2428 -82.0397 334° Northwest 373 429 37,000  Level Jacksonville Center
02:22PM 31.3372 -82.0972 333° Northwest 373 429 37,000  Level Jacksonville Center
02:23PM 31.4314 -82.1500 334° Northwest 373 429 37,000 -540 Level Jacksonville Center
02:24PM 31.5278 -82.2078 333° Northwest 373 429 36,000 -780 Descending Jacksonville Center
02:25PM 31.6822 -82.2964 334° Northwest 379 436 35,000 -420 Descending Atlanta Center
02:26PM 31.7747 -82.3556 331° Northwest 384 442 35,000  Level Atlanta Center
02:27PM 31.8672 -82.4103 333° Northwest 378 435 35,000  Level Atlanta Center
02:28PM 31.9661 -82.4697 333° Northwest 378 435 35,000  Level Atlanta Center
02:29PM 32.0586 -82.5267 332° Northwest 378 435 35,000 -120 Level Atlanta Center
02:30PM 32.1575 -82.5839 334° Northwest 378 435 34,800 -900 Descending Atlanta Center
02:31PM 32.2522 -82.6439 332° Northwest 378 435 33,200 -1,740 Descending Atlanta Center
02:32PM 32.3508 -82.7039 333° Northwest 383 441 31,400 -1,980 Descending Atlanta Center
02:33PM 32.4475 -82.7664 331° Northwest 389 448 29,300 -2,100 Descending Atlanta Center
02:34PM 32.5464 -82.8239 334° Northwest 396 456 27,200 -2,100 Descending Atlanta Center
02:35PM 32.6244 -82.9217 313° West 401 461 25,200 -1,800 Descending Atlanta Center
02:36PM 32.6983 -83.0317 309° West 401 461 23,700 -1,500 Descending Atlanta Center
02:37PM 32.7639 -83.1322 308° West 401 461 22,300 -900 Descending Atlanta Center
02:38PM 32.8272 -83.2281 308° West 383 441 22,000 -180 Descending Atlanta Center
02:39PM 32.8989 -83.3314 310° West 392 451 22,000  Level Atlanta Center
02:40PM 32.9683 -83.4372 308° West 398 458 22,000 -720 Level Atlanta Center
02:41PM 33.0356 -83.5383 308° West 398 458 20,600 -1,680 Descending Atlanta Center
02:42PM 33.1047 -83.6419 309° West 398 458 18,700 -2,280 Descending Atlanta Center
02:43PM 33.1500 -83.7167 306° West 382 440 16,900 -2,700 Descending Atlanta TRACON
02:44PM 33.2333 -83.8167 315° West 375 432 14,100 -2,220 Descending Atlanta TRACON
02:45PM 33.2833 -83.9000 306° West 359 413 12,500 -1,620 Descending Atlanta TRACON
02:45PM 33.2994 -83.9294 303° West 372 428 12,100 -420 Descending Atlanta Center
02:46PM 33.3600 -84.0239 308° West 367 422 12,000 -60 Descending Atlanta Center
02:47PM 33.4206 -84.1186 307° West 362 417 12,000  Level Atlanta Center
02:48PM 33.4667 -84.1833 311° West 348 400 12,000  Level Atlanta TRACON
02:49PM 33.5167 -84.2667 306° West 268 308 12,000 -360 Level Atlanta TRACON
02:50PM 33.5500 -84.3333 301° West 254 292 11,300 -1,200 Descending Atlanta TRACON
02:51PM 33.5500 -84.4167 270° West 269 310 9,600 -1,680 Descending Atlanta TRACON
02:52PM 33.5500 -84.5000 270° West 256 295 8,000 -2,100 Descending Atlanta TRACON
02:53PM 33.5500 -84.5833 270° West 245 282 5,600 -1,920 Descending Atlanta TRACON
02:54PM 33.5500 -84.6667 270° West 220 253 4,200 -900 Descending Atlanta TRACON
02:55PM 33.5833 -84.6833 337° Northwest 196 226 3,800 -480 Descending Atlanta TRACON
02:56PM 33.6167 -84.6333 51° Northeast 193 222 3,200 -420 Descending Atlanta TRACON
02:57PM 33.6167 -84.5667 90° East 188 216 3,000 -240 Descending Atlanta TRACON